Time;durP1;ratioP1;P1;durP2;ratioP2;P2;SDS_P1;SDS_P2;PMS_P1;PMS_P2;Temp;Humidity;BMP_temperature;BMP_pressure;BME280_temperature;BME280_humidity;BME280_pressure;Samples;Min_cycle;Max_cycle;Signal;HPM_P1;HPM_P2
2021/05/09 00:14:01;;;;;;;5.70;3.05;;;14.10;99.90;;;;;;4954015;29;20043;-91
2021/05/09 00:22:13;;;;;;;6.57;3.42;;;14.10;99.90;;;;;;4952491;28;20028;-91
2021/05/09 00:25:28;;;;;;;4.82;2.70;;;14.00;99.90;;;;;;4944352;28;20054;-91
2021/05/09 00:28:23;;;;;;;3.38;2.92;;;14.00;99.90;;;;;;4941297;28;20069;-92
2021/05/09 00:31:23;;;;;;;5.88;3.60;;;13.90;99.90;;;;;;4998944;23;20051;-91
2021/05/09 00:34:41;;;;;;;6.13;2.78;;;14.00;99.90;;;;;;4993389;23;20035;-91
2021/05/09 00:37:53;;;;;;;6.68;2.90;;;13.90;99.90;;;;;;4949024;28;20040;-91
2021/05/09 00:41:11;;;;;;;9.23;3.75;;;13.90;99.90;;;;;;4932584;29;20050;-91
2021/05/09 00:44:27;;;;;;;6.78;2.70;;;13.90;99.90;;;;;;4952496;23;20040;-92
2021/05/09 00:47:28;;;;;;;9.35;3.03;;;13.90;99.90;;;;;;4975685;28;20039;-92
2021/05/09 00:51:16;;;;;;;9.63;4.30;;;13.90;99.90;;;;;;4967765;28;20056;-93
2021/05/09 00:55:01;;;;;;;5.47;2.65;;;13.80;99.90;;;;;;4895391;29;20047;-92
2021/05/09 01:01:37;;;;;;;6.40;2.90;;;13.90;99.90;;;;;;4942220;29;20066;-91
2021/05/09 01:04:59;;;;;;;6.68;2.85;;;13.80;99.90;;;;;;4912811;28;20052;-91
2021/05/09 01:07:43;;;;;;;5.95;2.95;;;13.80;99.90;;;;;;4961150;28;20039;-92
2021/05/09 01:10:37;;;;;;;11.75;3.83;;;13.80;99.90;;;;;;5037809;23;20050;-92
2021/05/09 01:13:34;;;;;;;11.38;4.03;;;13.70;99.90;;;;;;4948134;28;20058;-92
2021/05/09 01:16:50;;;;;;;7.22;3.10;;;13.80;99.90;;;;;;4972499;23;20040;-91
2021/05/09 01:19:35;;;;;;;8.25;3.20;;;13.70;99.90;;;;;;4927937;29;20047;-90
2021/05/09 01:22:53;;;;;;;4.55;2.58;;;13.70;99.90;;;;;;4920897;28;20039;-91
2021/05/09 01:25:36;;;;;;;5.30;2.85;;;14.70;99.90;;;;;;4950085;28;20051;-91
2021/05/09 01:28:32;;;;;;;6.50;2.63;;;13.60;99.90;;;;;;4955307;28;20034;-91
2021/05/09 01:32:07;;;;;;;9.55;3.83;;;13.70;99.90;;;;;;4950094;28;20037;-91
2021/05/09 01:35:10;;;;;;;6.70;3.63;;;13.30;99.90;;;;;;4945537;28;20062;-89
2021/05/09 01:37:47;;;;;;;9.20;3.10;;;13.60;99.90;;;;;;4992816;28;20047;-90
2021/05/09 01:40:32;;;;;;;12.50;2.90;;;13.60;99.90;;;;;;4961558;28;20044;-91
2021/05/09 01:43:21;;;;;;;9.27;3.55;;;13.60;99.90;;;;;;4976222;28;20062;-91
2021/05/09 01:46:57;;;;;;;7.95;3.53;;;13.60;99.90;;;;;;4936531;28;20055;-90
2021/05/09 01:49:38;;;;;;;7.00;3.47;;;12.50;99.90;;;;;;4963235;28;20042;-90
2021/05/09 01:53:12;;;;;;;7.25;3.33;;;14.00;99.90;;;;;;4961989;28;20044;-90
2021/05/09 01:56:09;;;;;;;6.93;4.03;;;14.70;99.90;;;;;;4949705;28;20032;-90
2021/05/09 01:59:01;;;;;;;12.55;3.60;;;13.40;99.90;;;;;;4925408;29;20031;-90
2021/05/09 02:01:52;;;;;;;6.65;3.33;;;13.50;99.90;;;;;;4971565;23;20066;-90
2021/05/09 02:05:29;;;;;;;11.75;3.97;;;13.50;99.90;;;;;;4947491;28;20032;-90
2021/05/09 02:08:21;;;;;;;7.55;3.92;;;13.50;99.90;;;;;;4954361;28;20049;-91
2021/05/09 02:11:57;;;;;;;9.83;3.30;;;13.50;99.90;;;;;;4950205;28;20045;-91
2021/05/09 02:14:48;;;;;;;6.68;2.97;;;13.50;99.90;;;;;;4974032;23;20053;-91
2021/05/09 02:17:37;;;;;;;7.18;3.83;;;13.50;99.90;;;;;;4948444;23;20046;-90
2021/05/09 02:21:02;;;;;;;10.05;3.53;;;13.40;99.90;;;;;;4958129;28;20042;-91
2021/05/09 02:24:01;;;;;;;7.60;4.03;;;13.60;99.90;;;;;;4988475;28;20042;-90
2021/05/09 02:27:19;;;;;;;15.95;3.88;;;13.40;99.90;;;;;;4999800;28;20057;-91
2021/05/09 02:31:21;;;;;;;7.63;3.78;;;13.40;99.90;;;;;;4992146;28;20064;-92
2021/05/09 02:34:22;;;;;;;9.32;4.35;;;13.30;99.90;;;;;;4992716;28;20045;-90
2021/05/09 02:37:14;;;;;;;13.02;3.58;;;13.30;99.90;;;;;;4980270;28;20047;-91
2021/05/09 02:40:31;;;;;;;6.72;2.97;;;13.20;99.90;;;;;;4978101;23;20051;-92
2021/05/09 02:43:22;;;;;;;5.38;3.28;;;13.50;99.90;;;;;;4918462;29;20062;-92
2021/05/09 02:46:09;;;;;;;11.07;3.60;;;13.30;99.90;;;;;;4945141;29;20044;-92
2021/05/09 02:49:10;;;;;;;8.20;3.20;;;13.30;99.90;;;;;;4930143;29;20042;-92
2021/05/09 02:51:43;;;;;;;9.60;2.80;;;13.30;99.90;;;;;;4936016;29;20043;-92
2021/05/09 02:54:17;;;;;;;8.20;3.03;;;13.50;99.90;;;;;;4941715;29;20064;-93
2021/05/09 02:57:01;;;;;;;7.68;2.63;;;13.20;99.90;;;;;;4928747;29;20044;-93
2021/05/09 02:59:43;;;;;;;8.80;2.72;;;13.10;99.90;;;;;;4913355;29;20035;-92
2021/05/09 03:02:23;;;;;;;6.07;3.08;;;13.20;99.90;;;;;;4943651;28;20031;-92
2021/05/09 03:05:11;;;;;;;6.53;2.97;;;13.20;99.90;;;;;;4906858;29;20049;-93
2021/05/09 03:08:46;;;;;;;5.97;2.78;;;13.10;99.90;;;;;;4906373;29;20047;-92
2021/05/09 03:11:41;;;;;;;11.98;2.95;;;13.10;99.90;;;;;;4868673;29;20061;-91
2021/05/09 03:14:15;;;;;;;9.93;3.42;;;13.10;99.90;;;;;;4887583;29;20049;-92
2021/05/09 03:16:54;;;;;;;6.85;3.38;;;13.10;99.90;;;;;;4892561;29;20052;-92
2021/05/09 03:19:56;;;;;;;9.38;4.22;;;13.00;99.90;;;;;;4920810;29;20049;-92
2021/05/09 03:22:29;;;;;;;7.63;2.75;;;13.00;99.90;;;;;;4890579;29;20134;-93
2021/05/09 03:25:26;;;;;;;8.85;3.42;;;13.00;99.90;;;;;;4911219;29;20051;-93
2021/05/09 03:27:59;;;;;;;9.73;3.00;;;12.90;99.90;;;;;;4949078;23;20043;-93
2021/05/09 03:30:38;;;;;;;4.60;3.15;;;12.90;99.90;;;;;;4973291;28;20040;-92
2021/05/09 03:33:17;;;;;;;8.40;3.22;;;12.90;99.90;;;;;;4975417;28;20043;-93
2021/05/09 03:35:51;;;;;;;12.85;3.00;;;12.90;99.90;;;;;;4947086;29;20053;-92
2021/05/09 03:38:26;;;;;;;10.05;3.75;;;12.80;99.90;;;;;;4960741;28;20058;-92
2021/05/09 03:41:25;;;;;;;8.90;4.43;;;12.80;99.90;;;;;;4976632;23;20047;-92
2021/05/09 03:44:40;;;;;;;5.53;3.13;;;12.80;99.90;;;;;;4909596;29;20282;-92
2021/05/09 03:51:38;;;;;;;7.65;3.03;;;12.70;99.90;;;;;;5028061;23;20036;-92
2021/05/09 03:55:14;;;;;;;10.10;3.60;;;13.00;99.90;;;;;;4947672;28;20047;-92
2021/05/09 03:58:27;;;;;;;14.18;3.22;;;12.70;99.90;;;;;;4981711;23;20054;-91
2021/05/09 04:05:52;;;;;;;10.70;3.83;;;12.70;99.90;;;;;;5006789;23;20036;-93
2021/05/09 04:09:18;;;;;;;11.90;4.18;;;12.60;99.90;;;;;;4921533;29;20047;-93
2021/05/09 04:13:17;;;;;;;;;;;12.60;99.90;;;;;;4990875;23;20065;-91
2021/05/09 04:16:31;;;;;;;12.40;4.15;;;12.60;99.90;;;;;;4980526;28;19929;-91
2021/05/09 04:23:19;;;;;;;12.23;4.05;;;12.40;99.90;;;;;;4934435;29;20510;-92
2021/05/09 04:27:49;;;;;;;10.05;3.33;;;11.40;99.90;;;;;;4957050;29;20042;-92
2021/05/09 04:30:54;;;;;;;8.05;3.40;;;12.50;99.90;;;;;;4919878;29;20221;-92
2021/05/09 04:33:57;;;;;;;8.23;4.88;;;12.50;99.90;;;;;;5029002;23;20045;-92
2021/05/09 04:43:52;;;;;;;15.75;4.18;;;12.40;99.90;;;;;;5018229;23;20036;-91
2021/05/09 04:47:22;;;;;;;8.50;3.58;;;13.20;99.90;;;;;;4929365;29;20056;-92
2021/05/09 04:50:32;;;;;;;13.35;4.20;;;12.50;99.90;;;;;;4900850;29;20063;-91
2021/05/09 04:53:37;;;;;;;9.88;3.92;;;11.90;99.90;;;;;;4925475;29;20049;-91
2021/05/09 04:56:46;;;;;;;12.35;3.97;;;12.50;99.90;;;;;;4919372;29;20044;-91
2021/05/09 04:59:53;;;;;;;11.82;3.25;;;12.10;99.90;;;;;;4930273;29;20055;-91
2021/05/09 05:02:28;;;;;;;10.63;3.40;;;12.60;99.90;;;;;;4915907;29;20055;-91
2021/05/09 05:05:15;;;;;;;10.27;5.15;;;12.60;99.90;;;;;;4911933;29;20048;-91
2021/05/09 05:08:36;;;;;;;12.02;3.60;;;12.60;99.90;;;;;;4903341;29;20040;-91
2021/05/09 05:11:57;;;;;;;9.77;4.10;;;12.90;99.90;;;;;;4934411;29;20040;-91
2021/05/09 05:15:14;;;;;;;;;;;12.80;99.90;;;;;;4906384;29;20044;-91
2021/05/09 05:19:18;;;;;;;9.57;3.75;;;13.80;99.90;;;;;;4930314;29;19979;-91
2021/05/09 05:22:41;;;;;;;6.85;3.83;;;13.50;99.90;;;;;;4930445;29;20060;-92
2021/05/09 05:29:33;;;;;;;9.57;3.83;;;12.90;99.90;;;;;;4848645;29;20061;-92
2021/05/09 05:35:36;;;;;;;9.35;3.25;;;12.30;99.90;;;;;;5481432;23;20053;-92
2021/05/09 05:38:30;;;;;;;7.30;3.25;;;12.80;99.90;;;;;;4894565;23;20060;-91
2021/05/09 05:41:59;;;;;;;6.43;2.95;;;13.20;99.90;;;;;;4869510;29;20051;-92
2021/05/09 05:44:55;;;;;;;10.93;3.40;;;13.30;99.90;;;;;;4883838;29;20061;-92
2021/05/09 05:47:51;;;;;;;11.23;3.00;;;13.40;99.90;;;;;;4895724;29;20064;-92
2021/05/09 05:51:38;;;;;;;12.75;2.75;;;13.40;99.90;;;;;;4896249;29;20049;-91
2021/05/09 05:55:05;;;;;;;5.63;2.97;;;13.50;99.90;;;;;;4855220;29;20068;-93
2021/05/09 05:58:04;;;;;;;9.48;3.80;;;13.60;99.90;;;;;;4896475;29;20036;-91
2021/05/09 06:01:13;;;;;;;8.63;3.22;;;13.50;99.90;;;;;;4883232;29;20049;-93
2021/05/09 06:04:53;;;;;;;11.60;2.70;;;12.70;99.90;;;;;;4892585;29;20063;-90
2021/05/09 06:08:18;;;;;;;16.67;2.85;;;13.80;99.90;;;;;;4862167;29;20061;-92
2021/05/09 06:11:55;;;;;;;6.78;2.67;;;13.80;99.90;;;;;;4896945;29;20033;-92
2021/05/09 06:15:15;;;;;;;5.00;2.95;;;14.30;99.90;;;;;;4866760;29;20159;-93
2021/05/09 06:58:40;;;;;;;5.70;3.08;;;13.50;99.90;;;;;;5014042;23;20030;-92
2021/05/09 07:02:19;;;;;;;13.95;3.78;;;14.80;99.90;;;;;;4934189;29;20055;-93
2021/05/09 07:05:55;;;;;;;5.63;2.75;;;16.00;99.90;;;;;;4953371;28;20066;-91
2021/05/09 07:09:38;;;;;;;5.32;2.40;;;14.90;99.90;;;;;;4910326;29;20067;-92
2021/05/09 07:12:23;;;;;;;10.73;2.45;;;14.90;99.90;;;;;;4882518;29;20052;-92
2021/05/09 07:16:08;;;;;;;9.82;2.75;;;15.40;99.90;;;;;;4865913;29;20047;-92
2021/05/09 07:18:56;;;;;;;8.68;3.92;;;14.70;99.90;;;;;;4873401;29;20036;-90
2021/05/09 07:21:44;;;;;;;9.85;2.80;;;15.20;99.90;;;;;;4891542;29;20075;-91
2021/05/09 07:24:25;;;;;;;13.93;3.13;;;14.60;99.90;;;;;;4880368;29;20057;-90
2021/05/09 07:42:15;;;;;;;7.00;2.58;;;15.40;99.90;;;;;;4925112;23;20052;-90
2021/05/09 07:45:33;;;;;;;4.35;3.50;;;15.90;99.90;;;;;;4922613;29;20040;-91
2021/05/09 07:48:39;;;;;;;3.20;1.92;;;15.80;99.90;;;;;;4928231;29;20036;-91
2021/05/09 07:59:52;;;;;;;7.68;3.22;;;16.20;99.90;;;;;;4924299;28;20018;-91
2021/05/09 08:06:28;;;;;;;7.38;2.25;;;16.10;99.90;;;;;;4919902;23;20048;-89
2021/05/09 08:09:54;;;;;;;7.47;1.58;;;15.70;99.90;;;;;;4863485;29;20061;-91
2021/05/09 08:13:22;;;;;;;7.15;2.33;;;16.30;99.90;;;;;;4871900;29;20059;-91
2021/05/09 08:16:57;;;;;;;;;;;;;;;;;;;;;
2021/05/09 08:23:16;;;;;;;6.65;1.80;;;15.40;99.90;;;;;;4878571;29;20056;-90
2021/05/09 08:25:58;;;;;;;16.42;4.00;;;16.40;99.90;;;;;;4869786;29;20040;-90
2021/05/09 08:28:31;;;;;;;4.05;1.88;;;15.60;99.90;;;;;;4846490;29;20068;-90
2021/05/09 08:31:06;;;;;;;4.72;2.30;;;16.60;99.90;;;;;;4869923;23;20049;-89
2021/05/09 08:33:48;;;;;;;6.50;2.15;;;16.60;99.90;;;;;;4855618;29;20068;-93
2021/05/09 08:36:46;;;;;;;2.85;1.48;;;16.70;99.90;;;;;;4859414;29;20061;-92
2021/05/09 08:39:24;;;;;;;8.00;2.03;;;16.70;99.90;;;;;;4860898;29;20048;-91
2021/05/09 08:42:09;;;;;;;3.55;1.67;;;16.60;99.90;;;;;;4842932;29;20246;-91
2021/05/09 08:44:57;;;;;;;8.17;2.70;;;16.90;99.90;;;;;;4864953;29;20045;-89
2021/05/09 08:48:01;;;;;;;5.35;1.75;;;17.00;99.90;;;;;;4860874;29;20061;-89
2021/05/09 08:50:38;;;;;;;10.35;2.33;;;18.00;99.90;;;;;;4858976;29;20042;-90
2021/05/09 08:53:26;;;;;;;6.65;2.00;;;17.10;99.90;;;;;;4865367;29;20077;-91
2021/05/09 08:57:10;;;;;;;5.95;1.75;;;17.30;99.90;;;;;;4846326;29;20077;-94
2021/05/09 09:00:12;;;;;;;13.93;2.47;;;17.70;99.90;;;;;;4871164;29;20366;-91
2021/05/09 09:03:13;;;;;;;3.92;1.63;;;17.70;99.90;;;;;;4866659;29;20068;-90
2021/05/09 09:05:56;;;;;;;5.07;1.63;;;16.90;99.90;;;;;;4873724;29;20057;-91
2021/05/09 09:09:24;;;;;;;8.73;2.22;;;17.70;99.90;;;;;;4870903;29;20063;-91
2021/05/09 09:13:03;;;;;;;4.55;2.05;;;17.70;99.90;;;;;;4865755;29;20033;-91
2021/05/09 09:19:17;;;;;;;6.03;2.47;;;17.70;99.90;;;;;;4866564;29;20057;-91
2021/05/09 09:21:59;;;;;;;5.47;1.70;;;17.10;99.90;;;;;;4873213;29;21617;-90
2021/05/09 09:25:18;;;;;;;4.93;2.28;;;17.80;99.90;;;;;;4843830;29;20055;-92
2021/05/09 09:28:05;;;;;;;2.55;1.88;;;17.70;99.90;;;;;;4876918;29;20058;-91
2021/05/09 09:38:04;;;;;;;7.03;1.85;;;18.00;99.90;;;;;;4852017;29;20046;-90
2021/05/09 09:45:28;;;;;;;3.60;1.67;;;18.60;99.90;;;;;;4894175;23;20671;-90
2021/05/09 09:48:03;;;;;;;2.88;1.52;;;18.80;99.90;;;;;;4925188;29;20062;-92
2021/05/09 09:51:05;;;;;;;4.80;1.83;;;19.00;99.90;;;;;;4925210;29;20059;-91
2021/05/09 09:54:07;;;;;;;9.65;1.40;;;19.20;99.90;;;;;;4935946;29;20032;-92
2021/05/09 09:58:03;;;;;;;7.28;1.55;;;19.30;99.90;;;;;;4928641;29;20056;-92
2021/05/09 10:00:49;;;;;;;4.25;1.40;;;19.50;99.90;;;;;;4932571;29;20066;-92
2021/05/09 10:03:40;;;;;;;7.80;1.45;;;19.70;99.90;;;;;;4931500;29;20060;-96
2021/05/09 10:06:14;;;;;;;4.07;1.70;;;19.90;99.90;;;;;;4927455;29;20063;-90
2021/05/09 10:08:44;;;;;;;8.73;1.90;;;20.00;99.90;;;;;;4933458;29;20487;-94
2021/05/09 10:11:16;;;;;;;6.45;1.88;;;20.10;99.90;;;;;;4887780;29;20067;-93
2021/05/09 10:13:48;;;;;;;6.55;1.23;;;20.10;99.90;;;;;;4937204;29;20056;-92
2021/05/09 10:16:26;;;;;;;2.47;1.27;;;18.80;99.90;;;;;;4939488;29;20040;-91
2021/05/09 10:23:33;;;;;;;5.00;1.10;;;20.00;99.90;;;;;;4934333;29;20062;-90
2021/05/09 10:26:05;;;;;;;8.50;1.77;;;20.20;99.90;;;;;;4928654;29;20056;-90
2021/05/09 10:28:39;;;;;;;5.95;1.67;;;20.00;99.90;;;;;;4902719;29;20045;-92
2021/05/09 10:31:35;;;;;;;3.05;1.30;;;20.10;99.90;;;;;;4921577;29;20056;-95
2021/05/09 10:38:17;;;;;;;6.05;1.15;;;20.20;99.90;;;;;;4931826;29;20471;-91
2021/05/09 10:40:48;;;;;;;;;;;20.20;99.90;;;;;;4911068;29;20056;-93
2021/05/09 10:43:57;;;;;;;7.65;1.60;;;21.10;99.90;;;;;;4906691;29;19923;-92
2021/05/09 10:47:06;;;;;;;5.15;1.38;;;20.40;99.90;;;;;;4870518;29;20055;-92
2021/05/09 10:50:22;;;;;;;9.10;1.98;;;20.20;99.90;;;;;;4912586;29;20048;-93
2021/05/09 10:53:36;;;;;;;5.53;1.60;;;20.30;99.90;;;;;;4921860;29;20064;-93
2021/05/09 10:56:22;;;;;;;3.58;1.13;;;20.50;99.90;;;;;;4913033;29;20578;-92
2021/05/09 10:59:58;;;;;;;7.22;1.50;;;20.50;99.90;;;;;;4917094;29;20056;-94
2021/05/09 11:02:52;;;;;;;5.30;1.30;;;20.60;99.90;;;;;;4910358;29;20048;-92
2021/05/09 11:06:09;;;;;;;2.88;1.15;;;20.60;99.90;;;;;;4922282;29;20037;-92
2021/05/09 11:09:42;;;;;;;5.47;2.17;;;20.60;99.90;;;;;;4914594;29;20055;-91
2021/05/09 11:13:13;;;;;;;8.50;1.48;;;20.50;99.90;;;;;;4920416;29;20052;-93
2021/05/09 11:16:19;;;;;;;3.65;1.13;;;20.30;99.90;;;;;;4905484;29;20043;-90
2021/05/09 11:24:13;;;;;;;4.35;3.33;;;19.90;99.90;;;;;;4923609;29;20055;-93
2021/05/09 11:27:34;;;;;;;3.83;1.00;;;19.80;99.90;;;;;;4921742;29;20062;-90
2021/05/09 11:31:26;;;;;;;2.20;1.00;;;20.60;99.90;;;;;;4865305;29;20053;-88
2021/05/09 11:35:39;;;;;;;7.32;1.70;;;19.80;99.90;;;;;;4889474;29;20041;-88
2021/05/09 11:38:52;;;;;;;4.35;1.40;;;19.70;99.90;;;;;;4891912;29;20057;-90
2021/05/09 11:41:53;;;;;;;3.35;1.08;;;19.70;99.90;;;;;;4888274;29;20063;-89
2021/05/09 11:45:29;;;;;;;;;;;19.70;99.90;;;;;;4898651;29;20063;-89
2021/05/09 11:52:18;;;;;;;4.47;1.55;;;19.50;99.90;;;;;;4888027;29;20064;-94
2021/05/09 11:55:15;;;;;;;13.80;2.45;;;19.50;99.90;;;;;;4892745;29;20063;-94
2021/05/09 11:57:58;;;;;;;3.10;1.02;;;19.40;99.90;;;;;;4871513;29;20139;-90
2021/05/09 12:00:42;;;;;;;6.32;1.45;;;19.20;99.90;;;;;;4874046;29;20049;-94
2021/05/09 12:03:43;;;;;;;4.97;1.10;;;19.20;99.90;;;;;;4888308;29;20049;-91
2021/05/09 12:06:27;;;;;;;1.75;0.90;;;19.20;99.90;;;;;;4864887;29;20436;-92
2021/05/09 12:09:34;;;;;;;2.47;0.95;;;18.90;99.90;;;;;;4872047;29;20056;-90
2021/05/09 12:13:25;;;;;;;2.38;1.02;;;18.70;99.90;;;;;;4887195;29;20053;-93
2021/05/09 12:16:51;;;;;;;3.90;1.25;;;19.50;99.90;;;;;;4883391;29;20037;-91
2021/05/09 12:19:53;;;;;;;2.83;1.10;;;18.40;99.90;;;;;;4870834;29;20053;-89
2021/05/09 12:27:05;;;;;;;;;;;;;;;;;;;;;
2021/05/09 12:30:03;;;;;;;9.05;1.67;;;17.90;99.90;;;;;;4856431;29;20056;-90
2021/05/09 12:33:35;;;;;;;3.03;1.30;;;17.80;99.90;;;;;;4932895;23;20053;-92
2021/05/09 12:36:23;;;;;;;1.88;1.27;;;17.80;99.90;;;;;;4873938;29;20064;-90
2021/05/09 12:39:28;;;;;;;5.32;2.47;;;17.80;99.90;;;;;;4887199;29;20049;-91
2021/05/09 12:43:39;;;;;;;2.42;1.60;;;17.80;99.90;;;;;;4887410;29;20049;-92
2021/05/09 12:47:06;;;;;;;10.02;2.50;;;17.90;99.90;;;;;;4851017;29;20057;-90
2021/05/09 12:50:54;;;;;;;5.70;1.98;;;17.90;99.90;;;;;;4891259;29;20045;-92
2021/05/09 12:53:59;;;;;;;3.45;1.40;;;18.00;99.90;;;;;;4906646;23;20064;-89
2021/05/09 12:57:24;;;;;;;7.75;1.63;;;18.20;99.90;;;;;;4882110;29;20052;-92
2021/05/09 13:00:09;;;;;;;2.72;1.48;;;18.10;99.90;;;;;;4891880;29;20066;-91
2021/05/09 13:02:56;;;;;;;4.07;1.65;;;18.30;99.90;;;;;;4893324;29;20067;-91
2021/05/09 13:06:13;;;;;;;4.55;1.38;;;18.50;99.90;;;;;;4891295;29;20061;-92
2021/05/09 13:08:58;;;;;;;2.40;1.17;;;18.70;99.90;;;;;;4901238;29;20053;-92
2021/05/09 13:11:48;;;;;;;4.03;1.10;;;18.90;99.90;;;;;;4887316;29;20033;-91
2021/05/09 13:14:50;;;;;;;3.85;1.58;;;19.10;99.90;;;;;;4894571;29;20040;-90
2021/05/09 13:18:13;;;;;;;11.45;1.17;;;19.30;99.90;;;;;;4902050;29;20060;-91
2021/05/09 13:21:02;;;;;;;4.18;2.00;;;19.50;99.90;;;;;;4909537;29;20065;-91
2021/05/09 13:23:41;;;;;;;1.90;1.20;;;19.70;99.90;;;;;;4875081;29;20041;-92
2021/05/09 13:26:13;;;;;;;3.60;1.27;;;19.80;99.90;;;;;;4889054;29;20060;-90
2021/05/09 13:28:46;;;;;;;6.82;1.83;;;20.00;99.90;;;;;;4913302;29;20052;-90
2021/05/09 13:31:19;;;;;;;6.50;1.73;;;20.10;99.90;;;;;;4897142;29;20062;-91
2021/05/09 13:33:48;;;;;;;3.75;1.08;;;20.30;99.90;;;;;;4880133;29;20045;-91
2021/05/09 13:36:21;;;;;;;3.80;1.75;;;20.40;99.90;;;;;;4881697;29;20057;-91
2021/05/09 13:38:54;;;;;;;4.97;2.10;;;20.80;99.90;;;;;;4880184;29;20050;-90
2021/05/09 13:41:25;;;;;;;7.68;1.65;;;21.00;99.90;;;;;;4861622;29;20045;-91
2021/05/09 13:43:53;;;;;;;5.03;1.10;;;21.00;99.90;;;;;;4862656;29;20061;-91
2021/05/09 13:46:24;;;;;;;2.22;1.30;;;21.20;99.90;;;;;;4895366;29;20516;-90
2021/05/09 13:48:54;;;;;;;4.32;1.35;;;21.40;99.90;;;;;;4862898;29;20066;-89
2021/05/09 13:51:22;;;;;;;1.70;0.88;;;21.80;99.90;;;;;;4866186;29;20059;-90
2021/05/09 13:53:52;;;;;;;2.77;1.30;;;22.00;99.90;;;;;;4880026;29;20047;-91
2021/05/09 13:56:27;;;;;;;7.57;2.40;;;22.00;99.90;;;;;;4882275;29;20064;-89
2021/05/09 13:59:01;;;;;;;10.90;1.60;;;21.80;99.90;;;;;;4896978;29;20488;-91
2021/05/09 14:01:33;;;;;;;8.68;2.55;;;21.70;99.90;;;;;;4895618;29;20056;-89
2021/05/09 14:08:29;;;;;;;7.85;1.33;;;21.50;99.90;;;;;;4937946;29;20064;-89
2021/05/09 14:12:11;;;;;;;5.30;1.38;;;21.80;99.90;;;;;;4908135;29;20062;-91
2021/05/09 14:15:02;;;;;;;8.77;3.25;;;21.10;99.90;;;;;;4894131;29;20400;-88
2021/05/09 14:18:51;;;;;;;2.53;1.33;;;20.80;99.90;;;;;;4952432;23;20032;-86
2021/05/09 14:22:19;;;;;;;7.07;1.98;;;20.30;99.90;;;;;;4917451;29;20053;-90
2021/05/09 14:25:08;;;;;;;3.03;1.70;;;20.40;99.90;;;;;;4903186;29;20052;-87
2021/05/09 14:28:29;;;;;;;7.80;1.88;;;20.20;99.90;;;;;;4887114;29;20031;-88
2021/05/09 14:31:03;;;;;;;4.50;1.45;;;20.60;99.90;;;;;;4898440;29;20052;-91
2021/05/09 14:37:43;;;;;;;5.13;1.50;;;20.00;99.90;;;;;;4876973;29;20057;-91
2021/05/09 14:41:02;;;;;;;2.95;1.55;;;20.00;99.90;;;;;;4926139;23;20060;-90
2021/05/09 14:44:19;;;;;;;5.13;1.70;;;20.70;99.90;;;;;;4911981;29;20491;-89
2021/05/09 14:47:26;;;;;;;3.22;1.30;;;19.90;99.90;;;;;;4889917;29;20052;-90
2021/05/09 14:50:04;;;;;;;5.65;1.58;;;19.90;99.90;;;;;;4910953;29;20064;-86
2021/05/09 14:52:42;;;;;;;4.90;1.63;;;19.90;99.90;;;;;;4915375;29;20055;-89
2021/05/09 14:55:16;;;;;;;8.43;1.75;;;20.00;99.90;;;;;;4900203;29;20060;-87
2021/05/09 14:58:34;;;;;;;3.33;1.48;;;21.90;99.90;;;;;;4923742;29;20048;-90
2021/05/09 15:01:41;;;;;;;6.80;1.60;;;20.00;99.90;;;;;;4908512;29;20046;-87
2021/05/09 15:04:35;;;;;;;1.85;1.10;;;19.90;99.90;;;;;;4909151;29;20055;-87
2021/05/09 15:07:12;;;;;;;7.55;2.70;;;19.90;99.90;;;;;;4840105;29;20054;-88
2021/05/09 15:13:02;;;;;;;6.20;2.05;;;20.00;99.90;;;;;;4831083;29;20049;-88
2021/05/09 15:15:42;;;;;;;8.38;2.42;;;20.40;99.90;;;;;;4844224;29;20069;-90
2021/05/09 15:18:57;;;;;;;4.40;1.55;;;20.90;99.90;;;;;;4801690;29;20050;-85
2021/05/09 15:21:56;;;;;;;3.70;1.50;;;22.60;99.90;;;;;;4839326;29;20060;-91
2021/05/09 15:24:34;;;;;;;8.73;1.70;;;21.40;99.90;;;;;;4836538;29;20053;-90
2021/05/09 15:27:40;;;;;;;2.97;1.15;;;22.70;99.90;;;;;;4817938;29;20057;-89
2021/05/09 15:30:29;;;;;;;4.95;1.15;;;22.90;99.90;;;;;;4967204;23;20041;-90
2021/05/09 15:33:47;;;;;;;12.65;3.30;;;22.70;99.90;;;;;;4916003;29;20060;-88
2021/05/09 15:36:28;;;;;;;3.50;1.15;;;22.80;99.90;;;;;;4906254;29;20063;-87
2021/05/09 15:39:09;;;;;;;3.70;2.55;;;22.90;99.90;;;;;;4907684;29;20066;-89
2021/05/09 15:42:34;;;;;;;3.33;1.55;;;23.00;99.90;;;;;;4893158;29;20057;-88
2021/05/09 15:45:40;;;;;;;6.70;2.65;;;22.80;99.90;;;;;;4897989;29;20045;-89
2021/05/09 15:48:14;;;;;;;5.57;1.75;;;23.00;99.90;;;;;;4858835;29;20060;-88
2021/05/09 15:51:06;;;;;;;10.25;1.73;;;23.30;99.90;;;;;;4873827;29;20051;-86
2021/05/09 15:53:53;;;;;;;6.47;1.55;;;23.40;99.90;;;;;;4896146;29;20061;-88
2021/05/09 15:56:37;;;;;;;4.75;1.20;;;23.90;99.90;;;;;;4883941;29;20049;-86
2021/05/09 15:59:32;;;;;;;6.93;1.60;;;24.30;99.10;;;;;;4898792;29;20067;-90
2021/05/09 16:02:05;;;;;;;8.07;1.55;;;23.80;98.60;;;;;;4894459;29;20065;-93
2021/05/09 16:05:00;;;;;;;;;;;22.40;99.20;;;;;;4885048;29;20053;-92
2021/05/09 16:07:35;;;;;;;4.10;1.60;;;22.90;99.90;;;;;;4868420;29;19924;-89
2021/05/09 16:10:34;;;;;;;10.07;2.28;;;22.60;99.90;;;;;;4879709;29;20049;-89
2021/05/09 16:13:04;;;;;;;7.10;1.75;;;23.00;99.90;;;;;;4904973;29;20059;-87
2021/05/09 16:15:38;;;;;;;5.60;1.27;;;22.70;99.90;;;;;;4887724;29;20048;-87
2021/05/09 16:18:13;;;;;;;5.60;1.92;;;23.20;99.90;;;;;;4862795;29;20057;-86
2021/05/09 16:20:50;;;;;;;1.98;0.80;;;23.70;99.10;;;;;;4883008;29;20052;-88
2021/05/09 16:23:40;;;;;;;5.22;1.42;;;23.80;98.90;;;;;;4870492;29;20056;-90
2021/05/09 16:26:18;;;;;;;5.35;1.65;;;23.50;98.80;;;;;;4885939;29;20057;-90
2021/05/09 16:29:05;;;;;;;7.35;2.10;;;23.00;99.10;;;;;;4879081;29;20049;-91
2021/05/09 16:31:49;;;;;;;3.35;1.30;;;22.80;99.90;;;;;;4876328;29;20061;-89
2021/05/09 16:35:12;;;;;;;3.65;1.88;;;22.60;99.90;;;;;;4889376;29;20063;-88
2021/05/09 16:42:27;;;;;;;4.72;1.48;;;21.60;99.90;;;;;;4960532;23;20056;-89
2021/05/09 16:45:04;;;;;;;;;;;21.00;99.90;;;;;;4922842;29;20062;-90
2021/05/09 16:48:04;;;;;;;3.67;1.63;;;20.70;99.90;;;;;;4926813;29;19913;-89
2021/05/09 16:50:39;;;;;;;5.20;1.45;;;20.70;99.90;;;;;;4930078;29;20056;-91
2021/05/09 16:53:16;;;;;;;6.78;1.55;;;20.60;99.90;;;;;;4905477;29;20045;-87
2021/05/09 16:55:55;;;;;;;;;;;20.50;99.90;;;;;;4896899;29;20045;-88
2021/05/09 16:58:36;;;;;;;5.18;1.63;;;20.40;99.90;;;;;;4878051;29;19937;-91
2021/05/09 17:01:20;;;;;;;5.88;2.00;;;20.40;99.90;;;;;;4878379;29;20071;-90
2021/05/09 17:04:15;;;;;;;3.45;1.48;;;20.60;99.90;;;;;;4893250;29;20098;-91
2021/05/09 17:07:22;;;;;;;5.88;1.58;;;21.20;99.90;;;;;;4906259;29;20135;-94
2021/05/09 17:09:56;;;;;;;4.70;1.40;;;22.20;99.90;;;;;;4893339;29;20056;-88
2021/05/09 17:12:36;;;;;;;9.80;1.58;;;22.90;99.80;;;;;;4887882;29;20045;-86
2021/05/09 17:15:12;;;;;;;7.35;1.63;;;23.50;98.80;;;;;;4935865;23;20067;-91
2021/05/09 17:18:04;;;;;;;6.53;1.35;;;24.10;98.20;;;;;;4927218;29;20066;-88
2021/05/09 17:20:44;;;;;;;7.18;1.98;;;24.50;96.60;;;;;;4894115;29;20632;-95
2021/05/09 17:23:23;;;;;;;2.35;1.05;;;25.00;95.90;;;;;;4924387;29;20048;-88
2021/05/09 17:26:15;;;;;;;5.18;1.10;;;25.50;94.80;;;;;;4915630;29;20056;-87
2021/05/09 17:29:03;;;;;;;6.20;1.92;;;25.70;93.90;;;;;;4912123;29;20051;-90
2021/05/09 17:31:33;;;;;;;5.00;0.80;;;25.30;91.90;;;;;;4906259;29;20740;-87
2021/05/09 17:34:02;;;;;;;3.17;1.35;;;24.60;92.80;;;;;;4924124;29;20763;-90
2021/05/09 17:36:46;;;;;;;3.13;1.45;;;24.00;93.30;;;;;;4923246;29;20060;-87
2021/05/09 17:39:22;;;;;;;5.13;1.23;;;23.50;93.90;;;;;;4893382;29;20128;-90
2021/05/09 17:42:03;;;;;;;5.47;1.73;;;23.10;94.10;;;;;;4874720;29;20052;-86
2021/05/09 17:44:40;;;;;;;4.75;1.60;;;22.50;94.60;;;;;;4891791;29;20050;-89
2021/05/09 17:47:29;;;;;;;8.75;2.65;;;22.20;95.30;;;;;;4893042;29;20065;-89
2021/05/09 17:50:20;;;;;;;4.22;1.52;;;22.20;95.70;;;;;;4895392;29;20056;-88
2021/05/09 17:52:49;;;;;;;5.60;2.05;;;22.30;95.40;;;;;;4896354;29;20057;-89
2021/05/09 17:55:51;;;;;;;3.50;1.40;;;22.30;95.40;;;;;;4894258;29;20033;-91
2021/05/09 17:58:36;;;;;;;4.32;1.38;;;22.30;95.10;;;;;;4905215;29;20041;-89
2021/05/09 18:01:37;;;;;;;7.60;1.95;;;22.40;95.30;;;;;;4893186;29;20059;-87
2021/05/09 18:04:58;;;;;;;9.52;2.38;;;22.40;95.00;;;;;;4898495;29;20047;-90
2021/05/09 18:07:43;;;;;;;10.23;2.30;;;21.90;94.60;;;;;;4917204;29;20060;-88
2021/05/09 18:13:47;;;;;;;7.55;1.67;;;22.00;95.60;;;;;;4933513;29;20044;-88
2021/05/09 18:16:54;;;;;;;5.80;1.75;;;21.70;95.90;;;;;;4905044;29;20060;-90
2021/05/09 18:22:41;;;;;;;7.18;2.03;;;21.30;97.10;;;;;;4923853;29;20044;-89
2021/05/09 18:25:12;;;;;;;3.67;1.40;;;21.00;97.50;;;;;;4916912;29;20381;-91
2021/05/09 18:27:46;;;;;;;8.80;2.30;;;20.80;97.60;;;;;;4911215;29;20055;-92
2021/05/09 18:30:28;;;;;;;4.95;1.67;;;20.50;98.30;;;;;;4912207;29;20055;-90
2021/05/09 18:33:00;;;;;;;4.22;1.67;;;20.50;98.60;;;;;;4898645;29;20056;-90